createdAt,value
2022-08-14T00:02:03.039Z,62.00
2022-08-14T00:04:44.553Z,62.40
2022-08-14T00:07:14.094Z,62.70
2022-08-14T00:10:01.293Z,63.00
2022-08-14T00:12:39.294Z,62.80
2022-08-14T00:15:17.219Z,63.60
2022-08-14T00:17:47.258Z,63.30
2022-08-14T00:20:24.150Z,64.00
2022-08-14T00:22:58.818Z,64.10
2022-08-14T00:25:42.067Z,64.10
2022-08-14T00:28:15.148Z,64.70
2022-08-14T00:30:47.694Z,64.70
2022-08-14T00:33:15.989Z,65.00
2022-08-14T00:36:37.003Z,65.30
2022-08-14T00:38:32.249Z,65.40
2022-08-14T00:41:07.096Z,65.10
2022-08-14T00:43:43.256Z,66.60
2022-08-14T00:46:32.871Z,65.10
2022-08-14T00:49:00.806Z,66.60
2022-08-14T00:51:34.545Z,66.60
2022-08-14T00:54:17.049Z,67.80
2022-08-14T00:56:49.727Z,68.30
2022-08-14T00:59:16.571Z,69.80
2022-08-14T01:01:44.608Z,71.20
2022-08-14T01:04:52.287Z,71.90
2022-08-14T01:07:00.770Z,72.70
2022-08-14T01:09:32.325Z,73.60
2022-08-14T01:12:02.784Z,74.70
2022-08-14T01:14:30.521Z,75.90
2022-08-14T01:16:58.121Z,77.00
2022-08-14T01:19:46.758Z,78.10
2022-08-14T01:22:18.747Z,79.00
2022-08-14T01:24:47.119Z,80.70
2022-08-14T01:27:19.011Z,81.60
2022-08-14T01:30:01.331Z,83.20
2022-08-14T01:32:37.414Z,84.10
2022-08-14T01:35:18.632Z,85.10
2022-08-14T01:37:58.622Z,85.90
2022-08-14T01:40:36.834Z,85.30
2022-08-14T01:43:14.509Z,87.80
2022-08-14T01:45:48.922Z,88.00
2022-08-14T01:48:25.753Z,87.30
2022-08-14T01:50:52.631Z,87.70
2022-08-14T01:53:20.651Z,87.10
2022-08-14T01:55:51.698Z,88.00
2022-08-14T01:58:24.668Z,90.00
2022-08-14T02:00:58.607Z,89.90
2022-08-14T02:03:31.844Z,90.80
2022-08-14T02:05:59.576Z,91.00
2022-08-14T02:08:34.656Z,91.40
2022-08-14T02:11:22.321Z,91.80
2022-08-14T02:13:53.471Z,92.20
2022-08-14T02:16:26.322Z,92.30
2022-08-14T02:18:59.250Z,92.30
2022-08-14T02:21:27.705Z,92.40
2022-08-14T02:23:57.137Z,92.70
2022-08-14T02:26:29.767Z,92.80
2022-08-14T02:29:04.661Z,93.10
2022-08-14T02:31:42.388Z,93.50
2022-08-14T02:34:19.906Z,93.90
2022-08-14T02:37:06.204Z,94.20
2022-08-14T02:39:36.962Z,94.50
2022-08-14T02:42:05.889Z,94.60
2022-08-14T02:44:39.554Z,94.60
2022-08-14T02:47:15.083Z,94.40
2022-08-14T02:49:45.893Z,94.80
2022-08-14T02:52:26.766Z,94.90
2022-08-14T02:55:06.880Z,95.00
2022-08-14T02:57:40.312Z,94.80
2022-08-14T03:00:10.130Z,94.80
2022-08-14T03:02:56.797Z,95.20
2022-08-14T03:05:24.837Z,95.50
2022-08-14T03:07:53.026Z,95.60
2022-08-14T03:10:26.732Z,95.60
2022-08-14T03:12:55.617Z,95.70
2022-08-14T03:15:22.686Z,96.20
2022-08-14T03:17:57.435Z,96.40
2022-08-14T03:20:30.348Z,96.40
2022-08-14T03:23:03.153Z,96.50
2022-08-14T03:25:33.362Z,96.80
2022-08-14T03:28:04.048Z,96.50
2022-08-14T03:30:38.871Z,96.20
2022-08-14T03:33:10.632Z,96.10
2022-08-14T03:35:59.714Z,96.20
2022-08-14T03:39:13.384Z,95.90
2022-08-14T03:41:17.739Z,95.90
2022-08-14T03:43:46.551Z,96.20
2022-08-14T03:46:52.876Z,96.10
2022-08-14T03:49:24.305Z,95.90
2022-08-14T03:51:55.807Z,96.00
2022-08-14T03:54:24.631Z,96.10
2022-08-14T03:56:51.670Z,96.10
2022-08-14T03:59:19.923Z,96.30
2022-08-14T04:01:58.121Z,96.20
2022-08-14T04:04:33.402Z,96.30
2022-08-14T04:07:01.074Z,96.10
2022-08-14T04:09:29.316Z,96.00
2022-08-14T04:11:58.001Z,96.30
2022-08-14T04:14:26.452Z,96.50
2022-08-14T04:16:53.354Z,96.60
2022-08-14T04:19:23.966Z,96.70
2022-08-14T04:22:02.504Z,96.70
2022-08-14T04:24:31.881Z,96.80
2022-08-14T04:27:09.582Z,97.00
2022-08-14T04:29:42.533Z,97.00
2022-08-14T04:32:57.527Z,97.20
2022-08-14T04:34:57.771Z,97.30
2022-08-14T04:37:45.537Z,97.50
2022-08-14T04:40:32.492Z,97.50
2022-08-14T04:43:21.079Z,97.50
2022-08-14T04:45:51.421Z,97.50
2022-08-14T04:48:39.533Z,97.60
2022-08-14T04:51:16.027Z,97.70
2022-08-14T04:53:46.212Z,97.70
2022-08-14T04:56:30.716Z,97.70
2022-08-14T04:59:10.230Z,97.10
2022-08-14T05:01:41.706Z,96.20
2022-08-14T05:04:19.626Z,95.10
2022-08-14T05:06:49.092Z,94.20
2022-08-14T05:09:17.125Z,93.50
2022-08-14T05:11:44.781Z,92.90
2022-08-14T05:14:16.874Z,92.30
2022-08-14T05:17:01.463Z,91.70
2022-08-14T05:19:31.839Z,91.00
2022-08-14T05:22:17.496Z,90.30
2022-08-14T05:24:51.329Z,89.60
2022-08-14T05:27:22.305Z,89.20
2022-08-14T05:29:52.996Z,88.50
2022-08-14T05:32:20.185Z,87.50
2022-08-14T05:34:47.640Z,86.80
2022-08-14T05:37:15.336Z,84.90
2022-08-14T05:39:43.188Z,82.50
2022-08-14T05:42:22.170Z,80.50
2022-08-14T05:44:56.164Z,79.60
2022-08-14T05:47:24.192Z,78.00
2022-08-14T05:49:58.293Z,76.20
2022-08-14T05:52:38.720Z,74.70
2022-08-14T05:55:11.410Z,74.00
2022-08-14T05:57:47.451Z,73.40
2022-08-14T06:00:29.069Z,73.80
2022-08-14T06:03:04.114Z,74.00
2022-08-14T06:05:35.142Z,72.80
2022-08-14T06:08:31.479Z,72.20
2022-08-14T06:11:03.894Z,72.60
2022-08-14T06:13:45.134Z,73.00
2022-08-14T06:16:14.814Z,72.50
2022-08-14T06:18:47.317Z,72.00
2022-08-14T06:21:15.865Z,73.10
2022-08-14T06:23:44.471Z,71.60
2022-08-14T06:26:16.311Z,71.80
2022-08-14T06:28:47.838Z,71.10
2022-08-14T06:31:20.720Z,69.60
2022-08-14T06:35:10.641Z,68.80
2022-08-14T06:36:35.474Z,68.60
2022-08-14T06:39:02.510Z,67.80
2022-08-14T06:41:58.522Z,67.70
2022-08-14T06:44:16.544Z,67.90
2022-08-14T06:46:49.309Z,66.70
2022-08-14T06:49:16.548Z,67.30
2022-08-14T06:51:46.772Z,67.20
2022-08-14T06:54:16.751Z,65.50
2022-08-14T06:56:44.195Z,65.20
2022-08-14T06:59:15.757Z,64.70
2022-08-14T07:02:05.330Z,63.30
2022-08-14T07:04:50.725Z,64.00
2022-08-14T07:07:18.364Z,61.30
2022-08-14T07:09:51.199Z,61.10
2022-08-14T07:12:54.962Z,60.10
2022-08-14T07:15:06.233Z,60.20
2022-08-14T07:17:36.248Z,60.20
2022-08-14T07:20:04.866Z,59.80
2022-08-14T07:22:56.424Z,58.90
2022-08-14T07:25:21.504Z,58.50
2022-08-14T07:27:48.331Z,58.90
2022-08-14T07:30:34.330Z,59.00
2022-08-14T07:33:02.900Z,57.80
2022-08-14T07:35:37.311Z,58.00
2022-08-14T07:38:18.174Z,58.20
2022-08-14T07:40:48.341Z,57.50
2022-08-14T07:43:21.680Z,57.80
2022-08-14T07:45:50.789Z,57.20
2022-08-14T07:48:18.147Z,56.80
2022-08-14T07:50:52.130Z,56.60
2022-08-14T07:53:20.788Z,56.80
2022-08-14T07:56:00.289Z,56.90
2022-08-14T07:58:38.650Z,57.60
2022-08-14T08:01:19.175Z,57.60
2022-08-14T08:03:47.674Z,56.80
2022-08-14T08:06:18.808Z,56.70
2022-08-14T08:09:00.936Z,56.80
2022-08-14T08:11:34.752Z,57.10
2022-08-14T08:14:10.714Z,57.40
2022-08-14T08:16:46.456Z,57.30
2022-08-14T08:19:14.318Z,56.60
2022-08-14T08:21:43.769Z,56.30
2022-08-14T08:24:12.516Z,55.00
2022-08-14T08:26:45.988Z,54.60
2022-08-14T08:29:25.126Z,55.20
2022-08-14T08:31:56.651Z,55.90
2022-08-14T08:34:29.533Z,55.40
2022-08-14T08:37:01.692Z,56.10
2022-08-14T08:40:02.536Z,56.10
2022-08-14T08:42:31.508Z,56.70
2022-08-14T08:45:11.829Z,56.50
2022-08-14T08:47:43.271Z,56.20
2022-08-14T08:50:23.321Z,55.20
2022-08-14T08:53:02.101Z,55.00
2022-08-14T08:55:35.413Z,55.40
2022-08-14T08:58:12.409Z,55.20
2022-08-14T09:00:48.862Z,55.40
2022-08-14T09:03:20.600Z,55.80
2022-08-14T09:05:54.182Z,56.10
2022-08-14T09:08:32.334Z,56.10
2022-08-14T09:11:02.511Z,55.80
2022-08-14T09:13:45.770Z,55.90
2022-08-14T09:16:18.615Z,56.20
2022-08-14T09:18:47.162Z,56.20
2022-08-14T09:21:16.212Z,55.20
2022-08-14T09:24:25.974Z,55.70
2022-08-14T09:26:32.340Z,55.50
2022-08-14T09:29:00.523Z,55.70
2022-08-14T09:31:43.148Z,56.60
2022-08-14T09:34:27.921Z,55.50
2022-08-14T09:37:25.847Z,55.30
2022-08-14T09:40:06.382Z,55.00
2022-08-14T09:42:51.075Z,54.60
2022-08-14T09:45:40.186Z,54.80
2022-08-14T09:48:27.532Z,54.50
2022-08-14T09:50:57.420Z,54.70
2022-08-14T09:54:18.578Z,53.90
2022-08-14T09:56:30.878Z,54.90
2022-08-14T09:59:15.486Z,55.20
2022-08-14T10:01:52.919Z,54.30
2022-08-14T10:04:33.460Z,53.40
2022-08-14T10:07:08.193Z,52.60
2022-08-14T10:09:59.687Z,51.70
2022-08-14T10:12:54.884Z,51.10
2022-08-14T10:15:30.004Z,51.30
2022-08-14T10:18:09.459Z,51.50
2022-08-14T10:20:48.255Z,50.60
2022-08-14T10:23:20.085Z,50.70
2022-08-14T10:25:53.136Z,49.60
2022-08-14T10:28:51.525Z,49.60
2022-08-14T10:31:25.348Z,50.50
2022-08-14T10:34:05.010Z,50.70
2022-08-14T10:36:47.694Z,50.00
2022-08-14T10:39:20.617Z,48.10
2022-08-14T10:41:54.071Z,47.60
2022-08-14T10:44:25.381Z,47.30
2022-08-14T10:47:39.846Z,48.80
2022-08-14T10:49:57.831Z,49.90
2022-08-14T10:52:34.531Z,49.60
2022-08-14T10:55:15.351Z,49.80
2022-08-14T10:57:53.833Z,49.80
2022-08-14T11:00:29.748Z,48.70
2022-08-14T11:03:19.849Z,49.00
2022-08-14T11:05:55.865Z,48.30
2022-08-14T11:08:34.160Z,48.00
2022-08-14T11:11:05.388Z,47.60
2022-08-14T11:13:32.525Z,47.10
2022-08-14T11:16:01.349Z,45.50
2022-08-14T11:18:35.753Z,44.40
2022-08-14T11:21:06.726Z,43.30
2022-08-14T11:23:41.064Z,44.00
2022-08-14T11:26:11.812Z,42.80
2022-08-14T11:28:48.265Z,41.70
2022-08-14T11:31:23.959Z,42.40
2022-08-14T11:33:59.536Z,43.20
2022-08-14T11:36:57.280Z,43.90
2022-08-14T11:39:34.662Z,43.20
2022-08-14T11:42:55.212Z,41.80
2022-08-14T11:44:56.688Z,41.70
2022-08-14T11:47:24.741Z,41.20
2022-08-14T11:49:52.005Z,41.90
2022-08-14T11:52:19.384Z,42.00
2022-08-14T11:54:57.553Z,42.00
2022-08-14T11:57:25.315Z,42.10
2022-08-14T12:00:02.136Z,42.30
2022-08-14T12:02:36.089Z,42.00
2022-08-14T12:05:36.423Z,43.20
2022-08-14T12:08:12.052Z,43.00
2022-08-14T12:10:43.993Z,42.70
2022-08-14T12:13:17.463Z,42.90
2022-08-14T12:15:46.762Z,42.20
2022-08-14T12:18:19.203Z,41.80
2022-08-14T12:20:52.449Z,42.10
2022-08-14T12:23:25.818Z,40.30
2022-08-14T12:26:38.900Z,40.30
2022-08-14T12:29:12.986Z,39.80
2022-08-14T12:31:44.490Z,41.90
2022-08-14T12:34:20.679Z,38.90
2022-08-14T12:36:50.017Z,39.60
2022-08-14T12:39:19.716Z,38.60
2022-08-14T12:41:57.206Z,39.80
2022-08-14T12:44:36.078Z,40.70
2022-08-14T12:47:06.387Z,41.00
2022-08-14T12:49:34.318Z,40.40
2022-08-14T12:52:03.006Z,41.10
2022-08-14T12:54:32.163Z,40.20
2022-08-14T12:57:08.263Z,40.90
2022-08-14T12:59:37.263Z,41.10
2022-08-14T13:02:25.266Z,40.60
2022-08-14T13:04:56.553Z,41.30
2022-08-14T13:07:26.665Z,41.40
2022-08-14T13:10:00.271Z,40.90
2022-08-14T13:12:37.005Z,40.80
2022-08-14T13:15:16.127Z,41.30
2022-08-14T13:17:51.303Z,41.80
2022-08-14T13:20:24.823Z,39.70
2022-08-14T13:22:54.988Z,39.20
2022-08-14T13:25:25.898Z,39.70
2022-08-14T13:27:57.771Z,39.60
2022-08-14T13:30:26.427Z,39.60
2022-08-14T13:32:57.718Z,39.50
2022-08-14T13:35:25.704Z,39.60
2022-08-14T13:37:53.794Z,39.90
2022-08-14T13:40:26.618Z,39.30
2022-08-14T13:42:57.276Z,39.30
2022-08-14T13:45:33.934Z,38.90
2022-08-14T13:48:28.669Z,38.70
2022-08-14T13:51:03.698Z,39.70
2022-08-14T13:53:37.983Z,39.50
2022-08-14T13:56:06.652Z,40.00
2022-08-14T13:58:46.868Z,40.00
2022-08-14T14:01:18.908Z,39.20
2022-08-14T14:03:50.070Z,38.40
2022-08-14T14:06:20.035Z,39.20
2022-08-14T14:08:55.086Z,39.80
2022-08-14T14:11:26.307Z,39.60
2022-08-14T14:13:59.520Z,39.50
2022-08-14T14:16:30.965Z,39.70
2022-08-14T14:19:09.796Z,39.60
2022-08-14T14:21:38.093Z,41.00
2022-08-14T14:24:08.227Z,40.70
2022-08-14T14:26:46.586Z,41.00
2022-08-14T14:29:14.543Z,40.90
2022-08-14T14:31:47.308Z,41.10
2022-08-14T14:34:29.409Z,41.40
2022-08-14T14:37:04.380Z,42.30
2022-08-14T14:39:37.835Z,42.20
2022-08-14T14:42:18.177Z,42.70
2022-08-14T14:44:46.699Z,41.70
2022-08-14T14:47:17.647Z,41.70
2022-08-14T14:49:55.180Z,41.30
2022-08-14T14:52:27.747Z,41.60
2022-08-14T14:54:58.535Z,41.80
2022-08-14T14:57:34.602Z,42.10
2022-08-14T15:00:05.750Z,42.70
2022-08-14T15:02:47.123Z,42.40
2022-08-14T15:05:20.820Z,42.60
2022-08-14T15:07:49.968Z,43.50
2022-08-14T15:10:27.379Z,42.80
2022-08-14T15:13:03.808Z,42.70
2022-08-14T15:15:33.062Z,42.80
2022-08-14T15:18:01.189Z,42.80
2022-08-14T15:20:30.273Z,43.00
2022-08-14T15:23:11.735Z,43.50
2022-08-14T15:25:40.949Z,43.30
2022-08-14T15:28:11.612Z,42.50
2022-08-14T15:30:50.927Z,42.30
2022-08-14T15:34:13.187Z,42.40
2022-08-14T15:36:30.831Z,42.90
2022-08-14T15:38:59.078Z,42.40
2022-08-14T15:41:26.763Z,42.60
2022-08-14T15:44:00.987Z,43.30
2022-08-14T15:46:43.397Z,42.70
2022-08-14T15:49:12.721Z,42.90
2022-08-14T15:51:42.159Z,43.40
2022-08-14T15:54:11.485Z,44.20
2022-08-14T15:56:43.375Z,44.00
2022-08-14T15:59:13.295Z,43.50
2022-08-14T16:01:54.251Z,44.10
2022-08-14T16:04:24.055Z,44.20
2022-08-14T16:06:54.794Z,44.90
2022-08-14T16:09:23.039Z,45.40
2022-08-14T16:11:53.537Z,45.50
2022-08-14T16:14:21.986Z,46.30
2022-08-14T16:16:59.870Z,46.50
2022-08-14T16:19:31.511Z,46.00
2022-08-14T16:22:58.693Z,46.20
2022-08-14T16:25:08.086Z,46.10
2022-08-14T16:27:41.137Z,46.60
2022-08-14T16:30:24.415Z,46.90
2022-08-14T16:32:55.907Z,47.00
2022-08-14T16:35:42.829Z,47.00
2022-08-14T16:38:19.828Z,46.90
2022-08-14T16:41:27.005Z,47.10
2022-08-14T16:44:32.038Z,47.00
2022-08-14T16:47:04.055Z,46.90
2022-08-14T16:50:03.552Z,47.00
2022-08-14T16:52:26.197Z,46.90
2022-08-14T16:55:08.825Z,47.10
2022-08-14T16:57:51.874Z,47.10
2022-08-14T17:00:43.642Z,47.10
2022-08-14T17:03:12.507Z,46.90
2022-08-14T17:05:46.669Z,46.80
2022-08-14T17:08:41.788Z,47.00
2022-08-14T17:11:11.069Z,47.10
2022-08-14T17:13:59.737Z,47.20
2022-08-14T17:16:38.307Z,46.90
2022-08-14T17:19:13.710Z,47.40
2022-08-14T17:21:46.786Z,46.90
2022-08-14T17:24:56.450Z,47.10
2022-08-14T17:27:05.271Z,47.20
2022-08-14T17:29:44.737Z,47.70
2022-08-14T17:32:29.869Z,47.30
2022-08-14T17:35:11.742Z,47.70
2022-08-14T17:37:46.237Z,47.70
2022-08-14T17:40:23.756Z,47.50
2022-08-14T17:43:00.881Z,47.30
2022-08-14T17:45:38.779Z,47.30
2022-08-14T17:49:16.254Z,47.40
2022-08-14T17:51:12.483Z,47.50
2022-08-14T17:53:52.840Z,47.70
2022-08-14T17:56:31.630Z,47.50
2022-08-14T17:59:06.170Z,47.70
2022-08-14T18:01:45.616Z,47.60
2022-08-14T18:04:28.605Z,47.70
2022-08-14T18:07:08.673Z,47.90
2022-08-14T18:09:56.741Z,48.10
2022-08-14T18:12:36.450Z,48.00
2022-08-14T18:15:15.807Z,48.10
2022-08-14T18:17:53.198Z,48.00
2022-08-14T18:21:42.864Z,48.00
2022-08-14T18:23:12.861Z,48.20
2022-08-14T18:25:48.281Z,48.30
2022-08-14T18:28:18.230Z,48.60
2022-08-14T18:31:42.303Z,48.90
2022-08-14T18:34:31.946Z,48.60
2022-08-14T18:37:14.280Z,48.70
2022-08-14T18:40:01.798Z,49.20
2022-08-14T18:42:34.861Z,49.30
2022-08-14T18:45:12.401Z,49.50
2022-08-14T18:48:14.187Z,49.70
2022-08-14T18:50:30.730Z,49.90
2022-08-14T18:53:10.922Z,50.00
2022-08-14T18:55:53.047Z,50.20
2022-08-14T18:58:45.639Z,50.30
2022-08-14T19:01:28.837Z,50.40
2022-08-14T19:03:58.889Z,50.70
2022-08-14T19:06:40.133Z,50.70
2022-08-14T19:09:07.713Z,50.80
2022-08-14T19:11:40.491Z,50.80
2022-08-14T19:14:07.912Z,50.90
2022-08-14T19:16:42.814Z,51.20
2022-08-14T19:19:12.240Z,51.30
2022-08-14T19:21:43.527Z,51.60
2022-08-14T19:24:27.604Z,51.70
2022-08-14T19:27:24.784Z,51.60
2022-08-14T19:30:19.963Z,51.80
2022-08-14T19:32:50.617Z,52.50
2022-08-14T19:35:49.096Z,52.60
2022-08-14T19:38:53.798Z,52.40
2022-08-14T19:41:33.863Z,52.40
2022-08-14T19:44:10.367Z,52.30
2022-08-14T19:47:01.079Z,52.60
2022-08-14T19:50:08.948Z,52.60
2022-08-14T19:52:30.075Z,52.90
2022-08-14T19:55:14.134Z,53.00
2022-08-14T19:57:41.902Z,53.20
2022-08-14T20:00:28.161Z,53.20
2022-08-14T20:03:11.674Z,53.60
2022-08-14T20:05:45.781Z,53.60
2022-08-14T20:09:05.321Z,53.70
2022-08-14T20:11:21.002Z,53.90
2022-08-14T20:14:10.433Z,53.90
2022-08-14T20:16:44.457Z,53.90
2022-08-14T20:19:24.789Z,54.10
2022-08-14T20:22:35.337Z,54.20
2022-08-14T20:24:47.438Z,54.30
2022-08-14T20:27:33.310Z,54.50
2022-08-14T20:30:29.877Z,54.50
2022-08-14T20:33:11.483Z,54.50
2022-08-14T20:35:52.169Z,55.20
2022-08-14T20:38:31.431Z,56.00
2022-08-14T20:41:07.562Z,56.50
2022-08-14T20:43:59.825Z,56.70
2022-08-14T20:46:39.515Z,56.70
2022-08-14T20:49:16.572Z,56.90
2022-08-14T20:51:54.668Z,56.50
2022-08-14T20:54:37.000Z,56.40
2022-08-14T20:57:17.847Z,56.40
2022-08-14T20:59:52.909Z,56.20
2022-08-14T21:02:30.463Z,56.60
2022-08-14T21:05:16.290Z,56.90
2022-08-14T21:07:50.883Z,57.10
2022-08-14T21:10:33.782Z,57.00
2022-08-14T21:13:26.566Z,57.00
2022-08-14T21:15:57.206Z,57.10
2022-08-14T21:18:44.930Z,57.20
2022-08-14T21:21:18.010Z,57.30
2022-08-14T21:23:53.747Z,57.40
2022-08-14T21:26:52.457Z,57.30
2022-08-14T21:29:15.199Z,57.40
2022-08-14T21:31:43.305Z,58.00
2022-08-14T21:34:31.228Z,57.70
2022-08-14T21:37:06.401Z,57.80
2022-08-14T21:39:36.292Z,57.80
2022-08-14T21:42:05.906Z,58.10
2022-08-14T21:44:43.568Z,58.60
2022-08-14T21:47:13.195Z,59.10
2022-08-14T21:49:46.070Z,59.00
2022-08-14T21:52:50.560Z,59.00
2022-08-14T21:55:10.433Z,59.20
2022-08-14T21:57:55.997Z,58.80
2022-08-14T22:00:36.684Z,58.20
2022-08-14T22:03:10.103Z,59.00
2022-08-14T22:05:41.763Z,59.90
2022-08-14T22:08:12.453Z,60.70
2022-08-14T22:10:44.670Z,60.20
2022-08-14T22:13:13.336Z,59.90
2022-08-14T22:15:43.813Z,60.60
2022-08-14T22:18:20.240Z,60.00
2022-08-14T22:20:53.446Z,60.90
2022-08-14T22:23:22.930Z,61.20
2022-08-14T22:25:51.242Z,61.30
2022-08-14T22:28:32.669Z,61.40
2022-08-14T22:31:03.553Z,61.70
2022-08-14T22:33:37.996Z,61.90
2022-08-14T22:36:26.320Z,62.00
2022-08-14T22:38:54.739Z,61.70
2022-08-14T22:41:26.949Z,62.10
2022-08-14T22:44:04.596Z,61.80
2022-08-14T22:46:33.679Z,61.80
2022-08-14T22:49:16.954Z,62.10
2022-08-14T22:51:49.105Z,62.30
2022-08-14T22:54:53.145Z,62.10
2022-08-14T22:57:05.964Z,62.10
2022-08-14T22:59:38.979Z,62.30
2022-08-14T23:02:18.708Z,62.70
2022-08-14T23:04:54.390Z,63.30
2022-08-14T23:07:24.532Z,63.00
2022-08-14T23:09:56.605Z,63.10
2022-08-14T23:12:28.564Z,63.30
2022-08-14T23:14:57.132Z,64.50
2022-08-14T23:17:23.985Z,63.90
2022-08-14T23:19:56.315Z,63.60
2022-08-14T23:22:26.128Z,63.70
2022-08-14T23:24:56.671Z,64.00
2022-08-14T23:28:02.530Z,64.30
2022-08-14T23:30:31.579Z,64.10
2022-08-14T23:33:01.816Z,64.30
2022-08-14T23:35:29.007Z,64.40
2022-08-14T23:38:01.893Z,64.30
2022-08-14T23:40:30.530Z,64.30
2022-08-14T23:43:08.100Z,64.20
2022-08-14T23:45:40.615Z,64.40
2022-08-14T23:48:12.409Z,65.10
2022-08-14T23:50:41.617Z,65.10
2022-08-14T23:53:47.059Z,65.30
2022-08-14T23:56:31.906Z,65.00
2022-08-14T23:59:01.079Z,65.30
